Time;durP1;ratioP1;P1;durP2;ratioP2;P2;SDS_P1;SDS_P2;PMS_P1;PMS_P2;Temp;Humidity;BMP_temperature;BMP_pressure;BME280_temperature;BME280_humidity;BME280_pressure;Samples;Min_cycle;Max_cycle;Signal;HPM_P1;HPM_P2
2023/07/14 00:01:29;;;;;;;;;;;13.60;70.50;;;;;;4097434;28;20495;-86
2023/07/14 00:03:32;;;;;;;;;;;13.70;70.70;;;;;;4095773;28;20002;-88
2023/07/14 00:05:44;;;;;;;;;;;13.60;70.40;;;;;;4068152;29;20374;-88
2023/07/14 00:08:06;;;;;;;;;;;13.70;70.30;;;;;;4081640;28;20527;-87
2023/07/14 00:10:31;;;;;;;;;;;13.70;70.10;;;;;;4095680;28;19919;-87
2023/07/14 00:12:51;;;;;;;;;;;13.60;70.00;;;;;;4083258;29;20080;-85
2023/07/14 00:15:12;;;;;;;;;;;13.60;70.70;;;;;;4080932;29;19986;-87
2023/07/14 00:17:33;;;;;;;;;;;13.60;71.30;;;;;;4082591;29;19915;-85
2023/07/14 00:19:54;;;;;;;;;;;13.60;71.10;;;;;;4082136;29;19974;-87
2023/07/14 00:22:14;;;;;;;;;;;13.60;70.70;;;;;;4079752;29;19959;-88
2023/07/14 00:24:35;;;;;;;;;;;13.50;71.10;;;;;;4079994;29;19919;-86
2023/07/14 00:26:36;;;;;;;;;;;13.50;70.70;;;;;;4079642;29;20055;-86
2023/07/14 00:28:37;;;;;;;;;;;13.60;71.00;;;;;;4084349;29;19929;-86
2023/07/14 00:30:39;;;;;;;;;;;13.50;71.10;;;;;;4064428;29;20452;-86
2023/07/14 00:32:40;;;;;;;;;;;13.50;71.90;;;;;;4075763;29;20141;-85
2023/07/14 00:34:42;;;;;;;;;;;13.40;71.60;;;;;;4081936;29;19954;-87
2023/07/14 00:36:42;;;;;;;;;;;13.50;72.10;;;;;;4096460;28;19957;-86
2023/07/14 00:38:43;;;;;;;;;;;13.50;72.10;;;;;;4073496;29;19918;-86
2023/07/14 00:40:45;;;;;;;;;;;13.40;72.00;;;;;;4077312;29;19915;-86
2023/07/14 00:42:47;;;;;;;;;;;13.40;71.80;;;;;;4082703;29;19977;-86
2023/07/14 00:44:50;;;;;;;;;;;13.40;71.80;;;;;;4085404;29;19984;-86
2023/07/14 00:46:50;;;;;;;;;;;13.40;72.90;;;;;;4095201;28;21030;-86
2023/07/14 00:48:52;;;;;;;;;;;13.40;73.10;;;;;;4065941;28;20058;-86
2023/07/14 00:50:53;;;;;;;;;;;13.30;73.00;;;;;;4081743;29;19919;-86
2023/07/14 00:52:54;;;;;;;;;;;13.40;72.80;;;;;;4095866;29;19954;-86
2023/07/14 00:54:54;;;;;;;;;;;13.40;72.50;;;;;;4085080;29;20023;-86
2023/07/14 00:56:56;;;;;;;;;;;13.40;72.30;;;;;;4081527;29;19970;-86
2023/07/14 00:58:58;;;;;;;;;;;13.40;72.60;;;;;;4082355;29;19950;-89
2023/07/14 01:01:02;;;;;;;;;;;13.30;72.20;;;;;;4079905;29;19926;-89
2023/07/14 01:03:06;;;;;;;;;;;13.30;72.40;;;;;;4088661;28;19925;-86
2023/07/14 01:05:07;;;;;;;;;;;13.30;72.30;;;;;;4080330;29;20167;-85
2023/07/14 01:07:08;;;;;;;;;;;13.30;72.10;;;;;;4079235;29;19920;-86
2023/07/14 01:09:10;;;;;;;;;;;13.20;71.90;;;;;;4084204;29;20005;-86
2023/07/14 01:11:11;;;;;;;;;;;13.20;72.10;;;;;;4082458;29;19918;-86
2023/07/14 01:13:12;;;;;;;;;;;13.20;72.30;;;;;;4080216;29;19926;-87
2023/07/14 01:15:12;;;;;;;;;;;13.30;73.20;;;;;;4074599;29;19919;-86
2023/07/14 01:17:13;;;;;;;;;;;13.20;72.90;;;;;;4078978;29;19926;-86
2023/07/14 01:19:20;;;;;;;;;;;13.10;73.00;;;;;;4080014;29;19919;-86
2023/07/14 01:21:21;;;;;;;;;;;13.20;73.30;;;;;;4075142;29;20354;-87
2023/07/14 01:23:24;;;;;;;;;;;13.20;73.00;;;;;;4079043;29;19922;-86
2023/07/14 01:25:27;;;;;;;;;;;13.10;73.30;;;;;;4076024;29;20452;-86
2023/07/14 01:27:28;;;;;;;;;;;13.10;73.60;;;;;;4079453;29;20476;-88
2023/07/14 01:29:29;;;;;;;;;;;13.10;73.20;;;;;;4093453;28;19914;-86
2023/07/14 01:31:30;;;;;;;;;;;13.10;73.00;;;;;;4075944;29;19926;-86
2023/07/14 01:33:30;;;;;;;;;;;13.10;73.50;;;;;;4100054;28;19914;-87
2023/07/14 01:35:35;;;;;;;;;;;13.10;73.80;;;;;;4080859;29;19919;-86
2023/07/14 01:37:39;;;;;;;;;;;13.00;73.70;;;;;;4077285;29;19923;-87
2023/07/14 01:39:40;;;;;;;;;;;13.10;73.70;;;;;;4082855;29;19974;-86
2023/07/14 01:41:41;;;;;;;;;;;13.00;74.10;;;;;;4095493;28;20415;-87
2023/07/14 01:43:42;;;;;;;;;;;13.10;73.80;;;;;;4077255;29;19923;-86
2023/07/14 01:45:43;;;;;;;;;;;13.00;73.70;;;;;;4075171;29;21094;-86
2023/07/14 01:47:45;;;;;;;;;;;13.00;73.20;;;;;;4079285;29;19929;-87
2023/07/14 01:49:49;;;;;;;;;;;13.10;73.20;;;;;;4079538;29;19925;-88
2023/07/14 01:51:50;;;;;;;;;;;13.00;73.00;;;;;;4075808;29;19926;-89
2023/07/14 01:53:58;;;;;;;;;;;12.90;72.80;;;;;;4094428;28;19915;-89
2023/07/14 01:56:04;;;;;;;;;;;12.90;73.00;;;;;;4094007;28;19981;-88
2023/07/14 01:58:08;;;;;;;;;;;13.00;73.00;;;;;;4094964;29;20043;-86
2023/07/14 02:00:12;;;;;;;;;;;12.90;73.00;;;;;;4094802;28;19918;-86
2023/07/14 02:02:16;;;;;;;;;;;12.90;73.30;;;;;;4095573;28;19982;-84
2023/07/14 02:04:29;;;;;;;;;;;12.90;73.30;;;;;;4079944;29;19918;-86
2023/07/14 02:06:31;;;;;;;;;;;12.90;73.10;;;;;;4080066;29;19915;-86
2023/07/14 02:08:32;;;;;;;;;;;12.90;73.00;;;;;;4080598;29;20713;-86
2023/07/14 02:10:33;;;;;;;;;;;13.00;73.10;;;;;;4078511;29;20365;-87
2023/07/14 02:12:33;;;;;;;;;;;12.90;73.00;;;;;;4065604;29;19982;-86
2023/07/14 02:14:47;;;;;;;;;;;12.90;73.10;;;;;;4094477;28;20309;-87
2023/07/14 02:16:49;;;;;;;;;;;12.80;73.00;;;;;;4081569;29;19954;-86
2023/07/14 02:18:51;;;;;;;;;;;12.90;73.00;;;;;;4078811;29;19981;-87
2023/07/14 02:20:53;;;;;;;;;;;12.80;73.10;;;;;;4079036;29;19926;-86
2023/07/14 02:22:54;;;;;;;;;;;12.90;73.20;;;;;;4097884;28;19919;-86
2023/07/14 02:24:55;;;;;;;;;;;12.90;73.20;;;;;;4080851;29;19946;-85
2023/07/14 02:27:02;;;;;;;;;;;12.80;73.30;;;;;;4096725;28;19923;-87
2023/07/14 02:29:12;;;;;;;;;;;12.80;73.20;;;;;;4066223;29;19987;-86
2023/07/14 02:31:21;;;;;;;;;;;12.80;73.30;;;;;;4082121;29;19922;-86
2023/07/14 02:33:24;;;;;;;;;;;12.80;73.20;;;;;;4081579;29;21206;-89
2023/07/14 02:35:30;;;;;;;;;;;12.80;73.60;;;;;;4095628;28;19946;-86
2023/07/14 02:38:02;;;;;;;;;;;12.80;73.50;;;;;;4079860;29;20373;-86
2023/07/14 02:40:04;;;;;;;;;;;12.80;73.50;;;;;;4090321;29;19981;-86
2023/07/14 02:42:05;;;;;;;;;;;12.70;73.50;;;;;;4081608;29;19962;-85
2023/07/14 02:44:08;;;;;;;;;;;12.70;73.60;;;;;;4081198;29;19974;-86
2023/07/14 02:46:15;;;;;;;;;;;12.70;73.40;;;;;;4075302;29;20697;-86
2023/07/14 02:48:18;;;;;;;;;;;12.70;73.30;;;;;;4063865;29;19927;-86
2023/07/14 02:50:18;;;;;;;;;;;12.80;73.70;;;;;;4096906;28;20596;-86
2023/07/14 02:52:20;;;;;;;;;;;12.80;73.50;;;;;;4065646;29;20002;-87
2023/07/14 02:54:25;;;;;;;;;;;12.70;73.70;;;;;;4094887;28;19922;-86
2023/07/14 02:56:26;;;;;;;;;;;12.80;73.70;;;;;;4079376;29;19923;-86
2023/07/14 02:58:27;;;;;;;;;;;12.70;73.60;;;;;;4078179;29;20021;-86
2023/07/14 03:00:28;;;;;;;;;;;12.70;73.60;;;;;;4078147;29;19919;-86
2023/07/14 03:02:29;;;;;;;;;;;12.70;73.80;;;;;;4079426;29;19961;-86
2023/07/14 03:04:34;;;;;;;;;;;12.60;73.60;;;;;;4067830;29;19927;-86
2023/07/14 03:06:38;;;;;;;;;;;12.60;73.50;;;;;;4078770;29;19915;-87
2023/07/14 03:08:52;;;;;;;;;;;12.70;73.70;;;;;;4094787;28;19931;-87
2023/07/14 03:11:13;;;;;;;;;;;12.70;73.50;;;;;;4078286;29;19975;-88
2023/07/14 03:13:35;;;;;;;;;;;12.70;73.50;;;;;;4080098;29;20312;-86
2023/07/14 03:15:57;;;;;;;;;;;12.70;73.60;;;;;;4079861;29;20277;-86
2023/07/14 03:18:18;;;;;;;;;;;12.60;73.50;;;;;;4079130;29;20320;-86
2023/07/14 03:20:38;;;;;;;;;;;12.60;73.40;;;;;;4079187;29;20741;-85
2023/07/14 03:22:59;;;;;;;;;;;12.60;73.40;;;;;;4092658;28;20356;-88
2023/07/14 03:25:19;;;;;;;;;;;12.60;73.70;;;;;;4080235;29;19939;-87
2023/07/14 03:27:20;;;;;;;;;;;12.70;73.90;;;;;;4078881;29;19923;-86
2023/07/14 03:29:20;;;;;;;;;;;12.70;74.00;;;;;;4081039;29;20262;-88
2023/07/14 03:31:21;;;;;;;;;;;12.60;74.00;;;;;;4092980;28;19922;-87
2023/07/14 03:33:22;;;;;;;;;;;12.70;73.80;;;;;;4061090;29;19923;-86
2023/07/14 03:35:23;;;;;;;;;;;12.60;73.90;;;;;;4081684;29;20001;-86
2023/07/14 03:37:23;;;;;;;;;;;12.70;74.00;;;;;;4079554;29;19923;-87
2023/07/14 03:39:25;;;;;;;;;;;12.60;74.10;;;;;;4076796;29;19922;-87
2023/07/14 03:41:26;;;;;;;;;;;12.60;74.40;;;;;;4080981;29;19935;-87
2023/07/14 03:43:26;;;;;;;;;;;12.60;74.70;;;;;;4079252;29;19923;-86
2023/07/14 03:45:27;;;;;;;;;;;12.70;75.00;;;;;;4076854;29;19942;-86
2023/07/14 03:47:28;;;;;;;;;;;12.60;74.90;;;;;;4077155;29;19923;-87
2023/07/14 03:49:29;;;;;;;;;;;12.70;75.40;;;;;;4079131;29;19958;-85
2023/07/14 03:51:30;;;;;;;;;;;12.60;76.00;;;;;;4082244;29;19915;-86
2023/07/14 03:53:31;;;;;;;;;;;12.60;75.40;;;;;;4082128;29;19922;-86
2023/07/14 03:55:32;;;;;;;;;;;12.70;75.70;;;;;;4088713;29;19914;-86
2023/07/14 03:57:35;;;;;;;;;;;12.70;75.80;;;;;;4066215;29;19966;-86
2023/07/14 03:59:35;;;;;;;;;;;12.70;75.90;;;;;;4081398;29;20193;-87
2023/07/14 04:01:56;;;;;;;;;;;12.80;76.00;;;;;;4081481;29;19927;-86
2023/07/14 04:03:57;;;;;;;;;;;12.80;76.80;;;;;;4081882;29;20049;-85
2023/07/14 04:05:57;;;;;;;;;;;12.70;77.00;;;;;;4078422;29;19966;-86
2023/07/14 04:07:58;;;;;;;;;;;12.80;77.10;;;;;;4074742;29;20401;-85
2023/07/14 04:09:59;;;;;;;;;;;12.80;77.20;;;;;;4074060;29;20049;-85
2023/07/14 04:12:00;;;;;;;;;;;12.90;77.20;;;;;;4079125;29;19922;-86
2023/07/14 04:14:21;;;;;;;;;;;13.00;77.30;;;;;;4080659;29;19929;-86
2023/07/14 04:16:41;;;;;;;;;;;13.00;78.20;;;;;;4081016;29;19923;-85
2023/07/14 04:18:42;;;;;;;;;;;13.10;78.70;;;;;;4092933;28;19922;-86
2023/07/14 04:21:08;;;;;;;;;;;13.20;79.10;;;;;;4078258;29;21145;-85
2023/07/14 04:23:29;;;;;;;;;;;13.20;79.00;;;;;;4091620;28;19945;-85
2023/07/14 04:25:38;;;;;;;;;;;13.30;79.30;;;;;;4060846;29;19915;-85
2023/07/14 04:27:59;;;;;;;;;;;13.40;79.70;;;;;;4073805;29;19919;-85
2023/07/14 04:30:20;;;;;;;;;;;13.50;79.60;;;;;;4078319;29;19921;-86
2023/07/14 04:32:42;;;;;;;;;;;13.50;79.60;;;;;;4079116;29;19969;-85
2023/07/14 04:34:44;;;;;;;;;;;13.60;79.80;;;;;;4062676;29;19926;-87
2023/07/14 04:37:04;;;;;;;;;;;13.70;80.50;;;;;;4076599;29;19954;-85
2023/07/14 04:39:25;;;;;;;;;;;13.70;80.30;;;;;;4076548;29;19981;-85
2023/07/14 04:41:45;;;;;;;;;;;13.90;80.80;;;;;;4080580;29;19919;-87
2023/07/14 04:44:13;;;;;;;;;;;13.90;81.10;;;;;;4078544;29;19977;-88
2023/07/14 04:46:33;;;;;;;;;;;13.90;80.80;;;;;;4078989;29;20022;-89
2023/07/14 04:48:54;;;;;;;;;;;14.00;81.30;;;;;;4078589;29;19958;-87
2023/07/14 04:51:15;;;;;;;;;;;14.10;81.30;;;;;;4078148;29;20004;-86
2023/07/14 04:53:35;;;;;;;;;;;14.20;81.00;;;;;;4080470;29;19918;-86
2023/07/14 04:55:56;;;;;;;;;;;14.30;81.20;;;;;;4076048;29;20010;-86
2023/07/14 04:58:17;;;;;;;;;;;14.30;81.00;;;;;;4079978;29;19922;-87
2023/07/14 05:00:38;;;;;;;;;;;14.40;81.10;;;;;;4079936;29;19919;-86
2023/07/14 05:02:59;;;;;;;;;;;14.40;80.90;;;;;;4080372;29;19919;-87
2023/07/14 05:05:21;;;;;;;;;;;14.60;80.80;;;;;;4080555;29;19919;-86
2023/07/14 05:07:41;;;;;;;;;;;14.60;80.80;;;;;;4075126;29;19926;-86
2023/07/14 05:10:02;;;;;;;;;;;14.60;81.40;;;;;;4079034;29;19942;-85
2023/07/14 05:12:23;;;;;;;;;;;14.70;81.20;;;;;;4093439;28;19922;-86
2023/07/14 05:14:43;;;;;;;;;;;14.80;81.30;;;;;;4079732;29;19970;-89
2023/07/14 05:17:04;;;;;;;;;;;15.00;81.20;;;;;;4075523;29;19993;-87
2023/07/14 05:19:25;;;;;;;;;;;15.00;81.50;;;;;;4076212;29;19919;-86
2023/07/14 05:21:45;;;;;;;;;;;15.10;81.40;;;;;;4076711;29;19914;-87
2023/07/14 05:24:06;;;;;;;;;;;15.20;81.30;;;;;;4078332;29;20026;-88
2023/07/14 05:26:27;;;;;;;;;;;15.30;81.10;;;;;;4081777;29;19991;-85
2023/07/14 05:28:47;;;;;;;;;;;15.40;81.90;;;;;;4080413;29;19922;-86
2023/07/14 05:31:09;;;;;;;;;;;15.50;81.60;;;;;;4077855;29;19919;-86
2023/07/14 05:33:12;;;;;;;;;;;15.60;80.90;;;;;;4076696;29;19919;-86
2023/07/14 05:35:13;;;;;;;;;;;15.70;80.70;;;;;;4081216;29;20466;-86
2023/07/14 05:37:14;;;;;;;;;;;15.70;80.80;;;;;;4065054;29;19921;-87
2023/07/14 05:39:15;;;;;;;;;;;15.80;80.40;;;;;;4077930;29;19918;-87
2023/07/14 05:41:16;;;;;;;;;;;15.90;80.20;;;;;;4077641;29;19997;-86
2023/07/14 05:43:16;;;;;;;;;;;16.00;79.80;;;;;;4136649;23;19968;-86
2023/07/14 05:48:06;;;;;;;;;;;16.10;79.60;;;;;;4077868;29;19990;-85
2023/07/14 05:52:56;;;;;;;;;;;16.20;79.40;;;;;;4094024;28;20021;-84
2023/07/14 05:55:26;;;;;;;;;;;16.30;79.90;;;;;;4104663;28;19922;-85
2023/07/14 06:00:13;;;;;;;;;;;16.50;79.60;;;;;;4136828;28;19925;-87
2023/07/14 06:03:06;;;;;;;;;;;16.60;79.10;;;;;;4134358;28;19913;-87
2023/07/14 06:05:19;;;;;;;;;;;16.70;78.90;;;;;;4114319;28;19974;-88
2023/07/14 06:07:49;;;;;;;;;;;16.80;78.70;;;;;;4144257;28;19934;-86
2023/07/14 06:10:09;;;;;;;;;;;17.00;78.80;;;;;;4095523;28;19915;-86
2023/07/14 06:12:19;;;;;;;;;;;17.00;77.90;;;;;;4093575;28;19918;-84
2023/07/14 06:14:27;;;;;;;;;;;17.10;77.50;;;;;;4092836;28;20288;-87
2023/07/14 06:16:46;;;;;;;;;;;17.20;77.10;;;;;;4110691;29;20013;-88
2023/07/14 06:19:07;;;;;;;;;;;17.20;76.60;;;;;;4121497;28;19909;-87
2023/07/14 06:21:10;;;;;;;;;;;17.40;76.30;;;;;;4115861;28;19903;-87
2023/07/14 06:23:57;;;;;;;;;;;17.30;75.40;;;;;;4118540;28;20003;-90
2023/07/14 06:26:08;;;;;;;;;;;17.40;75.30;;;;;;4069001;28;19907;-90
2023/07/14 06:28:44;;;;;;;;;;;17.50;75.10;;;;;;4070178;29;19917;-88
2023/07/14 06:31:08;;;;;;;;;;;17.60;75.10;;;;;;4065036;29;19947;-87
2023/07/14 06:33:25;;;;;;;;;;;17.70;75.10;;;;;;4050910;29;19977;-86
2023/07/14 06:36:06;;;;;;;;;;;17.70;74.80;;;;;;4054284;29;20384;-87
2023/07/14 06:41:10;;;;;;;;;;;17.90;73.50;;;;;;4051670;29;19923;-87
2023/07/14 06:43:54;;;;;;;;;;;17.90;73.40;;;;;;4068094;29;19966;-87
2023/07/14 06:46:15;;;;;;;;;;;18.10;73.60;;;;;;4060148;29;19942;-84
2023/07/14 06:48:57;;;;;;;;;;;18.10;73.20;;;;;;4051759;29;20631;-85
2023/07/14 06:51:28;;;;;;;;;;;18.30;72.80;;;;;;4057134;29;20009;-88
2023/07/14 06:53:29;;;;;;;;;;;18.30;72.20;;;;;;4030346;29;19980;-86
2023/07/14 06:55:36;;;;;;;;;;;18.40;72.30;;;;;;4044686;29;20398;-86
2023/07/14 06:57:51;;;;;;;;;;;18.40;72.10;;;;;;4044400;29;19951;-87
2023/07/14 07:02:58;;;;;;;;;;;18.60;71.00;;;;;;4029973;29;20020;-87
2023/07/14 07:05:10;;;;;;;;;;;18.70;70.90;;;;;;4062103;29;20002;-87
2023/07/14 07:07:11;;;;;;;;;;;18.80;70.60;;;;;;4047578;29;19934;-88
2023/07/14 07:10:09;;;;;;;;;;;18.90;70.10;;;;;;4086659;28;19919;-88
2023/07/14 07:12:28;;;;;;;;;;;18.90;70.30;;;;;;4078978;29;20460;-85
2023/07/14 07:14:59;;;;;;;;;;;18.90;70.00;;;;;;4071647;29;19922;-87
2023/07/14 07:17:28;;;;;;;;;;;19.00;69.50;;;;;;4074992;28;19929;-87
2023/07/14 07:19:55;;;;;;;;;;;19.10;69.30;;;;;;4127551;28;19963;-88
2023/07/14 07:22:16;;;;;;;;;;;19.10;67.20;;;;;;4125902;28;19918;-88
2023/07/14 07:24:51;;;;;;;;;;;19.20;65.80;;;;;;4103625;28;19919;-87
2023/07/14 07:27:21;;;;;;;;;;;19.30;67.70;;;;;;4108228;28;19918;-88
2023/07/14 07:29:48;;;;;;;;;;;19.30;66.50;;;;;;4103348;28;19965;-86
2023/07/14 07:32:26;;;;;;;;;;;19.40;66.20;;;;;;4103429;28;19914;-87
2023/07/14 07:34:52;;;;;;;;;;;19.40;66.20;;;;;;4103055;28;19949;-88
2023/07/14 07:37:20;;;;;;;;;;;19.40;66.30;;;;;;4103413;28;20182;-88
2023/07/14 07:39:48;;;;;;;;;;;19.50;67.00;;;;;;4102945;28;19930;-87
2023/07/14 07:42:09;;;;;;;;;;;19.50;65.80;;;;;;4113990;28;19914;-87
2023/07/14 07:44:32;;;;;;;;;;;19.60;66.30;;;;;;4105005;28;19933;-88
2023/07/14 07:46:53;;;;;;;;;;;19.60;66.20;;;;;;4104471;28;19918;-88
2023/07/14 07:48:57;;;;;;;;;;;19.70;65.20;;;;;;4102026;28;20510;-88
2023/07/14 07:50:58;;;;;;;;;;;19.80;64.80;;;;;;4106486;28;20392;-89
2023/07/14 07:52:59;;;;;;;;;;;19.80;65.40;;;;;;4109604;28;19925;-87
2023/07/14 07:55:03;;;;;;;;;;;19.90;64.20;;;;;;4122991;28;20446;-87
2023/07/14 07:57:06;;;;;;;;;;;20.00;64.00;;;;;;4124640;28;19933;-89
2023/07/14 07:59:15;;;;;;;;;;;20.00;63.10;;;;;;4097794;28;19922;-89
2023/07/14 08:01:20;;;;;;;;;;;20.10;63.70;;;;;;4091482;28;19954;-88
2023/07/14 08:03:24;;;;;;;;;;;20.20;63.60;;;;;;4105571;28;19950;-87
2023/07/14 08:05:35;;;;;;;;;;;20.20;63.70;;;;;;4103540;28;21288;-90
2023/07/14 08:07:36;;;;;;;;;;;20.30;63.00;;;;;;4102802;28;19926;-88
2023/07/14 08:09:37;;;;;;;;;;;20.30;63.30;;;;;;4112860;28;20004;-89
2023/07/14 08:11:39;;;;;;;;;;;20.40;63.20;;;;;;4117857;28;19924;-90
2023/07/14 08:13:40;;;;;;;;;;;20.50;63.60;;;;;;4105760;28;19918;-87
2023/07/14 08:15:41;;;;;;;;;;;20.50;63.00;;;;;;4108892;28;19922;-88
2023/07/14 08:17:55;;;;;;;;;;;20.60;63.00;;;;;;4125847;28;19921;-89
2023/07/14 08:19:56;;;;;;;;;;;20.60;63.00;;;;;;4109817;28;20558;-89
2023/07/14 08:21:56;;;;;;;;;;;20.60;62.80;;;;;;4107634;28;19919;-89
2023/07/14 08:23:58;;;;;;;;;;;20.70;63.00;;;;;;4095345;28;19918;-88
2023/07/14 08:26:03;;;;;;;;;;;20.70;63.60;;;;;;4111911;28;20272;-87
2023/07/14 08:28:07;;;;;;;;;;;20.80;62.70;;;;;;4091251;28;20022;-89
2023/07/14 08:30:33;;;;;;;;;;;20.80;61.60;;;;;;4128413;28;19921;-86
2023/07/14 08:32:37;;;;;;;;;;;20.90;60.50;;;;;;4097560;28;19915;-89
2023/07/14 08:34:37;;;;;;;;;;;21.00;61.40;;;;;;4095958;29;19915;-88
2023/07/14 08:36:38;;;;;;;;;;;21.00;61.90;;;;;;4139697;28;19917;-88
2023/07/14 08:38:40;;;;;;;;;;;21.00;61.50;;;;;;4095066;28;20396;-88
2023/07/14 08:40:50;;;;;;;;;;;21.10;61.60;;;;;;4096580;28;20740;-88
2023/07/14 08:43:09;;;;;;;;;;;21.10;59.10;;;;;;4109112;28;19973;-89
2023/07/14 08:45:21;;;;;;;;;;;21.20;59.80;;;;;;4092689;28;19928;-88
2023/07/14 08:47:29;;;;;;;;;;;21.10;58.80;;;;;;4119294;28;19933;-88
2023/07/14 08:49:39;;;;;;;;;;;21.20;59.00;;;;;;4094878;28;19922;-88
2023/07/14 08:51:44;;;;;;;;;;;21.10;58.60;;;;;;4108221;28;19925;-89
2023/07/14 08:53:48;;;;;;;;;;;21.20;60.40;;;;;;4132654;28;19920;-90
2023/07/14 08:58:35;;;;;;;;;;;21.30;60.90;;;;;;4130762;28;19921;-88
2023/07/14 09:01:03;;;;;;;;;;;21.30;60.50;;;;;;4130164;28;20020;-89
2023/07/14 09:03:13;;;;;;;;;;;21.40;59.80;;;;;;4101863;28;20060;-86
2023/07/14 09:05:21;;;;;;;;;;;21.40;58.40;;;;;;4106019;28;19925;-89
2023/07/14 09:07:48;;;;;;;;;;;21.50;59.20;;;;;;4106891;28;19977;-89
2023/07/14 09:09:49;;;;;;;;;;;21.50;59.10;;;;;;4095477;28;20261;-89
2023/07/14 09:12:36;;;;;;;;;;;21.50;59.50;;;;;;4107958;28;19985;-88
2023/07/14 09:15:11;;;;;;;;;;;21.50;59.70;;;;;;4106290;28;19966;-88
2023/07/14 09:17:50;;;;;;;;;;;21.50;59.40;;;;;;4106637;28;19929;-89
2023/07/14 09:20:26;;;;;;;;;;;21.50;59.40;;;;;;4107775;28;19993;-89
2023/07/14 09:22:55;;;;;;;;;;;21.50;59.40;;;;;;4105953;28;20528;-89
2023/07/14 09:25:37;;;;;;;;;;;21.50;59.50;;;;;;4105567;28;20008;-89
2023/07/14 09:27:58;;;;;;;;;;;21.50;58.60;;;;;;4107642;28;19940;-89
2023/07/14 09:30:09;;;;;;;;;;;21.50;57.60;;;;;;4099590;28;20077;-91
2023/07/14 09:32:39;;;;;;;;;;;21.50;58.30;;;;;;4115695;28;20017;-87
2023/07/14 09:34:53;;;;;;;;;;;21.60;59.30;;;;;;4104184;28;19928;-90
2023/07/14 09:37:01;;;;;;;;;;;21.50;59.30;;;;;;4137587;28;20430;-88
2023/07/14 09:39:07;;;;;;;;;;;21.60;59.00;;;;;;4108159;28;20109;-87
2023/07/14 09:43:58;;;;;;;;;;;21.70;59.60;;;;;;4139263;28;19917;-92
2023/07/14 09:46:00;;;;;;;;;;;21.70;58.20;;;;;;4123945;28;19918;-91
2023/07/14 09:48:17;;;;;;;;;;;21.70;58.70;;;;;;4124318;28;19926;-88
2023/07/14 09:50:19;;;;;;;;;;;21.80;59.30;;;;;;4124503;28;20334;-88
2023/07/14 09:52:28;;;;;;;;;;;21.80;58.50;;;;;;4089271;28;19918;-90
2023/07/14 09:54:36;;;;;;;;;;;21.90;59.00;;;;;;4136748;28;20110;-90
2023/07/14 09:57:02;;;;;;;;;;;22.00;57.30;;;;;;4101005;28;19977;-88
2023/07/14 09:59:24;;;;;;;;;;;22.10;56.70;;;;;;4107814;28;19918;-90
2023/07/14 10:01:49;;;;;;;;;;;22.10;57.10;;;;;;4109032;28;20431;-87
2023/07/14 10:04:14;;;;;;;;;;;22.10;57.20;;;;;;4105474;28;19914;-90
2023/07/14 10:06:35;;;;;;;;;;;22.20;55.80;;;;;;4103914;28;19918;-89
2023/07/14 10:08:57;;;;;;;;;;;22.30;56.90;;;;;;4106308;28;19926;-92
2023/07/14 10:11:26;;;;;;;;;;;22.30;57.20;;;;;;4121675;28;19933;-90
2023/07/14 10:13:38;;;;;;;;;;;22.40;57.50;;;;;;4126885;28;20073;-89
2023/07/14 10:16:28;;;;;;;;;;;22.50;56.40;;;;;;4133998;28;20447;-89
2023/07/14 10:19:14;;;;;;;;;;;22.50;56.80;;;;;;4078151;29;19934;-89
2023/07/14 10:21:34;;;;;;;;;;;22.70;57.30;;;;;;4086544;29;19985;-90
2023/07/14 10:24:18;;;;;;;;;;;22.70;56.60;;;;;;4075795;29;19926;-91
2023/07/14 10:26:40;;;;;;;;;;;22.80;55.20;;;;;;4073429;29;20009;-90
2023/07/14 10:29:47;;;;;;;;;;;22.80;56.20;;;;;;4061275;29;20027;-90
2023/07/14 10:32:11;;;;;;;;;;;22.90;56.30;;;;;;4029996;29;19920;-90
2023/07/14 10:34:44;;;;;;;;;;;22.90;50.90;;;;;;4044858;29;19919;-90
2023/07/14 10:37:12;;;;;;;;;;;22.90;53.50;;;;;;4043809;29;19915;-89
2023/07/14 10:39:32;;;;;;;;;;;23.00;54.20;;;;;;4033261;29;19943;-89
2023/07/14 10:41:56;;;;;;;;;;;23.00;54.90;;;;;;4044132;29;19920;-89
2023/07/14 10:44:27;;;;;;;;;;;23.00;53.90;;;;;;4046101;29;19923;-89
2023/07/14 10:46:50;;;;;;;;;;;23.10;54.80;;;;;;4033029;29;19924;-89
2023/07/14 10:49:30;;;;;;;;;;;23.20;55.20;;;;;;4045381;29;20015;-90
2023/07/14 10:51:58;;;;;;;;;;;23.20;55.40;;;;;;4046893;29;20337;-90
2023/07/14 10:54:34;;;;;;;;;;;23.30;51.70;;;;;;4042943;29;19924;-89
2023/07/14 10:57:08;;;;;;;;;;;23.30;51.80;;;;;;4015893;29;20342;-88
2023/07/14 10:59:40;;;;;;;;;;;23.30;53.00;;;;;;4017185;29;20019;-90
2023/07/14 11:02:06;;;;;;;;;;;23.30;50.00;;;;;;4003269;29;20481;-89
2023/07/14 11:04:29;;;;;;;;;;;23.40;52.40;;;;;;4057965;29;19931;-90
2023/07/14 11:06:51;;;;;;;;;;;23.40;52.40;;;;;;4063021;29;19923;-89
2023/07/14 11:09:12;;;;;;;;;;;23.50;52.40;;;;;;4128163;28;20021;-91
2023/07/14 11:11:40;;;;;;;;;;;23.50;53.10;;;;;;4144524;28;20482;-91
2023/07/14 11:14:10;;;;;;;;;;;23.50;53.50;;;;;;4107061;28;19976;-89
2023/07/14 11:16:34;;;;;;;;;;;23.60;51.40;;;;;;4118938;28;19921;-89
2023/07/14 11:19:03;;;;;;;;;;;23.70;53.00;;;;;;4105219;28;19914;-90
2023/07/14 11:21:31;;;;;;;;;;;23.70;52.10;;;;;;4129211;28;19959;-90
2023/07/14 11:23:58;;;;;;;;;;;23.80;52.60;;;;;;4105920;28;19922;-89
2023/07/14 11:26:27;;;;;;;;;;;23.90;53.60;;;;;;4105645;28;19961;-88
2023/07/14 11:28:45;;;;;;;;;;;23.90;51.90;;;;;;4088358;28;19969;-89
2023/07/14 11:30:48;;;;;;;;;;;23.90;52.60;;;;;;4101223;28;19918;-90
2023/07/14 11:33:11;;;;;;;;;;;23.90;49.40;;;;;;4136229;28;19918;-91
2023/07/14 11:35:17;;;;;;;;;;;23.90;50.60;;;;;;4099173;28;20413;-89
2023/07/14 11:37:37;;;;;;;;;;;23.90;52.10;;;;;;4106485;28;19914;-89
2023/07/14 11:39:44;;;;;;;;;;;23.90;52.40;;;;;;4142648;28;19910;-93
2023/07/14 11:42:11;;;;;;;;;;;23.90;52.10;;;;;;4136678;28;19906;-91
2023/07/14 11:44:18;;;;;;;;;;;23.90;53.00;;;;;;4124699;28;19914;-91
2023/07/14 11:46:43;;;;;;;;;;;23.90;52.60;;;;;;4160845;22;19930;-86
2023/07/14 11:49:05;;;;;;;;;;;23.90;50.20;;;;;;4122813;28;19937;-87
2023/07/14 11:51:44;;;;;;;;;;;23.90;51.40;;;;;;4126753;28;19922;-86
2023/07/14 11:54:24;;;;;;;;;;;24.00;51.90;;;;;;4124201;28;19918;-86
2023/07/14 11:56:44;;;;;;;;;;;24.00;52.00;;;;;;4171388;22;20017;-86
2023/07/14 11:59:17;;;;;;;;;;;24.00;50.30;;;;;;4136748;28;19944;-86
2023/07/14 12:02:25;;;;;;;;;;;24.00;50.90;;;;;;4125691;28;19922;-88
2023/07/14 12:04:57;;;;;;;;;;;24.00;51.50;;;;;;4124919;28;19953;-87
2023/07/14 12:07:19;;;;;;;;;;;24.00;52.10;;;;;;4114146;28;19925;-87
2023/07/14 12:09:57;;;;;;;;;;;24.00;52.60;;;;;;4108654;28;19914;-86
2023/07/14 12:12:18;;;;;;;;;;;23.90;52.10;;;;;;4108539;28;19964;-87
2023/07/14 12:14:46;;;;;;;;;;;24.00;52.40;;;;;;4110106;28;20340;-87
2023/07/14 12:17:27;;;;;;;;;;;23.90;52.30;;;;;;4112369;28;19922;-84
2023/07/14 12:19:52;;;;;;;;;;;23.90;52.40;;;;;;4116591;28;19918;-85
2023/07/14 12:22:38;;;;;;;;;;;23.90;52.10;;;;;;4107867;28;20005;-87
2023/07/14 12:24:59;;;;;;;;;;;23.90;52.40;;;;;;4112889;28;19922;-86
2023/07/14 12:27:31;;;;;;;;;;;23.80;52.20;;;;;;4108372;28;20056;-88
2023/07/14 12:29:59;;;;;;;;;;;23.80;52.60;;;;;;4109667;28;19918;-86
2023/07/14 12:32:02;;;;;;;;;;;23.80;52.40;;;;;;4109181;28;20096;-87
2023/07/14 12:34:03;;;;;;;;;;;23.90;52.50;;;;;;4110365;28;19966;-85
2023/07/14 12:36:13;;;;;;;;;;;23.90;52.50;;;;;;4118326;28;19977;-86
2023/07/14 12:38:33;;;;;;;;;;;23.90;51.80;;;;;;4132207;28;19913;-88
2023/07/14 12:40:55;;;;;;;;;;;23.90;51.30;;;;;;4125210;28;19922;-87
2023/07/14 12:42:56;;;;;;;;;;;23.90;51.80;;;;;;4111015;28;19922;-89
2023/07/14 12:45:24;;;;;;;;;;;23.90;52.10;;;;;;4120968;28;19914;-86
2023/07/14 12:47:49;;;;;;;;;;;23.90;51.80;;;;;;4115167;28;19961;-87
2023/07/14 12:49:52;;;;;;;;;;;23.90;51.50;;;;;;4112317;28;19945;-87
2023/07/14 12:52:15;;;;;;;;;;;23.90;51.70;;;;;;4113896;28;20418;-88
2023/07/14 12:54:40;;;;;;;;;;;23.90;50.90;;;;;;4115054;28;19933;-86
2023/07/14 12:57:01;;;;;;;;;;;23.90;51.80;;;;;;4113082;28;19932;-87
2023/07/14 12:59:22;;;;;;;;;;;24.00;51.30;;;;;;4113754;28;19918;-86
2023/07/14 13:01:44;;;;;;;;;;;24.00;52.00;;;;;;4107771;28;19918;-86
2023/07/14 13:04:05;;;;;;;;;;;24.00;51.40;;;;;;4103242;28;19938;-85
2023/07/14 13:06:14;;;;;;;;;;;24.10;51.90;;;;;;4117460;28;19957;-86
2023/07/14 13:08:18;;;;;;;;;;;24.10;51.10;;;;;;4093041;28;20017;-86
2023/07/14 13:10:20;;;;;;;;;;;24.20;51.70;;;;;;4097099;28;19965;-87
2023/07/14 13:12:41;;;;;;;;;;;24.20;51.80;;;;;;4110755;28;19918;-87
2023/07/14 13:15:02;;;;;;;;;;;24.30;50.70;;;;;;4110017;28;19918;-86
2023/07/14 13:17:24;;;;;;;;;;;24.20;48.50;;;;;;4106235;28;20517;-87
2023/07/14 13:19:48;;;;;;;;;;;24.20;50.00;;;;;;4111022;28;19914;-86
2023/07/14 13:22:28;;;;;;;;;;;24.20;50.80;;;;;;4109333;28;19918;-86